createdAt,value
2016-12-05T00:04:46.845Z,0
2016-12-05T00:09:50.924Z,0
2016-12-05T00:14:55.340Z,0
2016-12-05T00:19:59.420Z,0
2016-12-05T00:25:03.502Z,0
2016-12-05T00:30:07.915Z,0
2016-12-05T00:35:12.327Z,0
2016-12-05T00:40:16.406Z,0
2016-12-05T00:45:20.826Z,0
2016-12-05T00:50:25.242Z,0
2016-12-05T00:55:29.323Z,0
2016-12-05T01:00:33.403Z,0
2016-12-05T01:05:37.485Z,0
2016-12-05T01:10:41.566Z,0
2016-12-05T01:15:45.647Z,0
2016-12-05T01:20:49.726Z,0
2016-12-05T01:25:54.479Z,0
2016-12-05T01:30:58.561Z,0
2016-12-05T01:36:02.973Z,0
2016-12-05T01:41:07.047Z,0
2016-12-05T01:46:11.122Z,0
2016-12-05T01:51:15.206Z,0
2016-12-05T01:56:19.625Z,0
2016-12-05T02:01:23.706Z,0
2016-12-05T02:06:27.782Z,0
2016-12-05T02:11:31.876Z,0
2016-12-05T02:16:36.623Z,0
2016-12-05T02:21:40.703Z,0
2016-12-05T02:26:45.451Z,0
2016-12-05T02:31:49.871Z,0
2016-12-05T02:36:54.287Z,0
2016-12-05T02:41:58.701Z,0
2016-12-05T02:47:03.125Z,0
2016-12-05T02:52:07.870Z,0
2016-12-05T02:57:12.298Z,0
2016-12-05T03:02:16.716Z,0
2016-12-05T03:07:20.793Z,0
2016-12-05T03:12:24.873Z,0
2016-12-05T03:17:28.949Z,0
2016-12-05T03:22:34.037Z,0
2016-12-05T03:27:39.114Z,0
2016-12-05T03:32:44.539Z,0
2016-12-05T03:37:48.618Z,0
2016-12-05T03:42:52.703Z,0
2016-12-05T03:47:56.783Z,0
2016-12-05T03:53:01.531Z,0
2016-12-05T03:58:06.276Z,0
2016-12-05T04:03:10.361Z,0
2016-12-05T04:08:14.773Z,0
2016-12-05T04:13:18.853Z,0
2016-12-05T04:18:22.929Z,0
2016-12-05T04:23:27.334Z,0
2016-12-05T04:28:31.419Z,0
2016-12-05T04:33:35.832Z,0
2016-12-05T04:38:40.243Z,0
2016-12-05T04:43:44.663Z,0
2016-12-05T04:48:48.743Z,0
2016-12-05T04:53:52.821Z,0
2016-12-05T04:58:56.903Z,0
2016-12-05T05:04:00.985Z,0
2016-12-05T05:09:05.079Z,0
2016-12-05T05:14:09.184Z,0
2016-12-05T05:19:13.274Z,0
2016-12-05T05:24:17.362Z,0
2016-12-05T05:29:21.445Z,0
2016-12-05T05:34:25.544Z,0
2016-12-05T05:39:29.978Z,0
2016-12-05T05:44:34.395Z,0
2016-12-05T05:49:38.477Z,0
2016-12-05T05:54:42.794Z,0
2016-12-05T05:59:46.867Z,0
2016-12-05T06:04:50.953Z,0
2016-12-05T06:09:55.037Z,0
2016-12-05T06:14:59.477Z,0
2016-12-05T06:20:03.892Z,0
2016-12-05T06:25:08.312Z,0
2016-12-05T06:30:12.733Z,2
2016-12-05T06:35:17.168Z,1
2016-12-05T06:40:21.252Z,0
2016-12-05T06:45:25.341Z,1
2016-12-05T06:50:29.422Z,2
2016-12-05T06:55:33.834Z,4
2016-12-05T07:00:38.251Z,9
2016-12-05T07:05:42.341Z,14
2016-12-05T07:10:46.763Z,24
2016-12-05T07:15:50.842Z,37
2016-12-05T07:20:55.599Z,52
2016-12-05T07:26:00.022Z,70
2016-12-05T07:31:04.437Z,92
2016-12-05T07:36:08.861Z,116
2016-12-05T07:41:13.282Z,142
2016-12-05T07:46:18.034Z,170
2016-12-05T07:51:22.125Z,195
2016-12-05T07:56:26.214Z,263
2016-12-05T08:01:30.434Z,400
2016-12-05T08:06:34.853Z,499
2016-12-05T08:11:39.142Z,513
2016-12-05T08:16:43.243Z,484
2016-12-05T08:21:47.991Z,661
2016-12-05T08:26:52.412Z,700
2016-12-05T08:31:57.163Z,690
2016-12-05T08:37:01.924Z,693
2016-12-05T08:42:06.008Z,739
2016-12-05T08:47:10.095Z,723
2016-12-05T08:52:14.177Z,690
2016-12-05T08:57:18.260Z,739
2016-12-05T09:02:22.345Z,818
2016-12-05T09:07:26.429Z,867
2016-12-05T09:12:31.185Z,866
2016-12-05T09:17:35.609Z,827
2016-12-05T09:22:40.359Z,788
2016-12-05T09:27:44.774Z,744
2016-12-05T09:32:48.855Z,722
2016-12-05T09:37:52.937Z,733
2016-12-05T09:42:57.033Z,797
2016-12-05T09:48:01.115Z,845
2016-12-05T09:53:05.867Z,889
2016-12-05T09:58:09.955Z,920
2016-12-05T10:03:14.391Z,964
2016-12-05T10:08:19.152Z,1022
2016-12-05T10:13:23.239Z,1041
2016-12-05T10:18:27.325Z,1009
2016-12-05T10:23:31.413Z,913
2016-12-05T10:28:35.845Z,829
2016-12-05T10:33:40.941Z,693
2016-12-05T10:38:45.372Z,670
2016-12-05T10:43:49.791Z,719
2016-12-05T10:48:54.211Z,697
2016-12-05T10:53:58.298Z,671
2016-12-05T10:59:02.712Z,666
2016-12-05T11:04:06.844Z,653
2016-12-05T11:09:10.938Z,587
2016-12-05T11:14:15.106Z,584
2016-12-05T11:19:19.218Z,647
2016-12-05T11:24:23.633Z,709
2016-12-05T11:29:28.400Z,732
2016-12-05T11:34:32.473Z,759
2016-12-05T11:39:36.561Z,809
2016-12-05T11:44:40.643Z,865
2016-12-05T11:49:45.074Z,927
2016-12-05T11:54:49.155Z,1007
2016-12-05T11:59:53.584Z,1085
2016-12-05T12:04:58.344Z,1131
2016-12-05T12:10:02.431Z,1185
2016-12-05T12:15:07.182Z,1236
2016-12-05T12:20:11.292Z,1291
2016-12-05T12:25:16.050Z,1342
2016-12-05T12:30:20.492Z,1374
2016-12-05T12:35:24.596Z,1393
2016-12-05T12:40:29.358Z,1387
2016-12-05T12:45:33.793Z,1385
2016-12-05T12:50:38.226Z,1365
2016-12-05T12:55:42.652Z,1314
2016-12-05T13:00:47.081Z,1265
2016-12-05T13:05:51.506Z,1217
2016-12-05T13:10:55.943Z,1164
2016-12-05T13:16:00.390Z,1118
2016-12-05T13:21:04.507Z,1077
2016-12-05T13:26:08.634Z,1017
2016-12-05T13:31:13.461Z,872
2016-12-05T13:36:32.451Z,729
2016-12-05T13:41:36.634Z,525
2016-12-05T13:46:41.601Z,332
2016-12-05T13:51:46.044Z,267
2016-12-05T13:56:50.497Z,261
2016-12-05T14:01:55.381Z,257
2016-12-05T14:07:00.149Z,229
2016-12-05T14:12:04.913Z,205
2016-12-05T14:17:09.333Z,190
2016-12-05T14:22:13.758Z,175
2016-12-05T14:27:17.847Z,154
2016-12-05T14:32:21.934Z,139
2016-12-05T14:37:26.361Z,119
2016-12-05T14:42:30.780Z,100
2016-12-05T14:47:35.228Z,82
2016-12-05T14:52:39.330Z,64
2016-12-05T14:57:43.440Z,48
2016-12-05T15:02:48.268Z,33
2016-12-05T15:07:52.381Z,22
2016-12-05T15:12:56.481Z,12
2016-12-05T15:18:01.241Z,6
2016-12-05T15:23:05.330Z,4
2016-12-05T15:28:09.415Z,2
2016-12-05T15:33:13.666Z,1
2016-12-05T15:38:18.087Z,1
2016-12-05T15:43:22.168Z,0
2016-12-05T15:48:26.618Z,0
2016-12-05T15:53:30.705Z,0
2016-12-05T15:58:34.821Z,0
2016-12-05T16:03:39.824Z,0
2016-12-05T16:08:44.690Z,0
2016-12-05T16:13:48.781Z,0
2016-12-05T16:18:52.880Z,0
2016-12-05T16:23:57.303Z,1
2016-12-05T16:29:01.726Z,0
2016-12-05T16:34:05.819Z,0
2016-12-05T16:39:10.572Z,0
2016-12-05T16:44:14.655Z,0
2016-12-05T16:49:19.283Z,0
2016-12-05T16:54:23.703Z,0
2016-12-05T16:59:27.995Z,0
2016-12-05T17:04:32.127Z,0
2016-12-05T17:09:36.248Z,0
2016-12-05T17:14:40.340Z,0
2016-12-05T17:19:44.764Z,0
2016-12-05T17:24:48.857Z,0
2016-12-05T17:29:52.965Z,0
2016-12-05T17:34:57.045Z,0
2016-12-05T17:40:01.475Z,0
2016-12-05T17:45:06.223Z,0
2016-12-05T17:50:10.637Z,0
2016-12-05T17:55:15.055Z,0
2016-12-05T18:00:19.836Z,0
2016-12-05T18:05:23.929Z,0
2016-12-05T18:10:28.023Z,0
2016-12-05T18:15:32.780Z,0
2016-12-05T18:20:36.864Z,0
2016-12-05T18:25:41.289Z,0
2016-12-05T18:30:45.367Z,0
2016-12-05T18:35:49.450Z,0
2016-12-05T18:40:53.868Z,0
2016-12-05T18:45:58.287Z,0
2016-12-05T18:51:03.039Z,1
2016-12-05T18:56:07.464Z,0
2016-12-05T19:01:11.891Z,0
2016-12-05T19:06:15.973Z,0
2016-12-05T19:11:20.395Z,0
2016-12-05T19:16:24.495Z,0
2016-12-05T19:21:28.921Z,0
2016-12-05T19:26:33.680Z,0
2016-12-05T19:31:38.449Z,0
2016-12-05T19:36:42.548Z,0
2016-12-05T19:41:46.639Z,0
2016-12-05T19:46:51.060Z,0
2016-12-05T19:51:55.491Z,0
2016-12-05T19:56:59.922Z,0
2016-12-05T20:02:04.012Z,0
2016-12-05T20:07:08.109Z,0
2016-12-05T20:12:12.243Z,0
2016-12-05T20:17:17.238Z,0
2016-12-05T20:22:21.672Z,0
2016-12-05T20:27:25.757Z,0
2016-12-05T20:32:30.515Z,0
2016-12-05T20:37:34.939Z,0
2016-12-05T20:42:39.368Z,0
2016-12-05T20:47:44.039Z,0
2016-12-05T20:52:48.548Z,2
2016-12-05T20:57:53.278Z,0
2016-12-05T21:02:58.291Z,0
2016-12-05T21:08:02.593Z,0
2016-12-05T21:13:07.361Z,0
2016-12-05T21:18:11.800Z,0
2016-12-05T21:23:16.923Z,0
2016-12-05T21:28:21.056Z,0
2016-12-05T21:33:25.808Z,0
2016-12-05T21:38:30.223Z,0
2016-12-05T21:43:35.310Z,0
2016-12-05T21:48:39.777Z,0
2016-12-05T21:53:44.423Z,0
2016-12-05T21:58:48.501Z,0
2016-12-05T22:03:52.578Z,0
2016-12-05T22:08:56.665Z,0
2016-12-05T22:14:01.078Z,0
2016-12-05T22:19:05.158Z,0
2016-12-05T22:24:09.231Z,0
2016-12-05T22:29:13.313Z,0
2016-12-05T22:34:18.059Z,0
2016-12-05T22:39:22.475Z,0
2016-12-05T22:44:26.582Z,0
2016-12-05T22:49:30.987Z,0
2016-12-05T22:54:35.733Z,0
2016-12-05T22:59:40.478Z,0
2016-12-05T23:04:45.560Z,0
2016-12-05T23:09:49.641Z,0
2016-12-05T23:14:53.716Z,0
2016-12-05T23:19:57.792Z,0
2016-12-05T23:25:02.208Z,0
2016-12-05T23:30:06.957Z,0
2016-12-05T23:35:11.697Z,0
2016-12-05T23:40:15.778Z,0
2016-12-05T23:45:20.191Z,0
2016-12-05T23:50:24.593Z,0
2016-12-05T23:55:29.007Z,0
